Time;durP1;ratioP1;P1;durP2;ratioP2;P2;SDS_P1;SDS_P2;PMS_P1;PMS_P2;Temp;Humidity;BMP_temperature;BMP_pressure;BME280_temperature;BME280_humidity;BME280_pressure;Samples;Min_cycle;Max_cycle;Signal;HPM_P1;HPM_P2
2022/01/10 00:00:36;;;;;;;4.73;4.30;;;;;;;-0.08;100.00;95652.50;5072105;28;20498;-74
2022/01/10 00:03:05;;;;;;;4.20;3.33;;;;;;;0.00;100.00;95653.75;5073429;28;20514;-75
2022/01/10 00:05:31;;;;;;;6.37;3.60;;;;;;;-0.03;100.00;95657.66;5073415;28;20452;-74
2022/01/10 00:08:02;;;;;;;4.70;3.80;;;;;;;-0.21;100.00;95642.00;5057903;28;20444;-73
2022/01/10 00:10:28;;;;;;;9.97;3.93;;;;;;;-0.27;100.00;95656.84;5057601;28;20444;-73
2022/01/10 00:12:55;;;;;;;4.67;4.23;;;;;;;-0.32;100.00;95613.53;5074070;28;20440;-73
2022/01/10 00:15:22;;;;;;;5.20;4.70;;;;;;;-0.13;100.00;95647.38;5074138;28;20436;-73
2022/01/10 00:17:49;;;;;;;7.07;5.20;;;;;;;-0.24;100.00;95627.75;5055908;28;20514;-73
2022/01/10 00:20:18;;;;;;;6.10;5.50;;;;;;;-0.37;100.00;95618.78;5074884;28;20471;-73
2022/01/10 00:22:47;;;;;;;8.13;5.50;;;;;;;-0.17;100.00;95637.78;5055901;28;20493;-73
2022/01/10 00:25:20;;;;;;;7.40;6.33;;;;;;;-0.19;100.00;95653.66;5073443;28;20464;-73
2022/01/10 00:27:49;;;;;;;7.40;5.70;;;;;;;-0.50;100.00;95592.69;5055956;28;20505;-73
2022/01/10 00:30:16;;;;;;;9.50;6.80;;;;;;;-0.08;100.00;95659.53;5074488;28;20452;-75
2022/01/10 00:32:44;;;;;;;7.83;6.10;;;;;;;-0.34;100.00;95613.03;5076242;28;20812;-75
2022/01/10 00:35:13;;;;;;;7.60;6.10;;;;;;;-0.14;100.00;95663.22;5074736;28;20495;-76
2022/01/10 00:37:42;;;;;;;9.90;6.00;;;;;;;-0.32;100.00;95662.84;5076818;28;20471;-76
2022/01/10 00:40:14;;;;;;;11.07;6.77;;;;;;;-0.57;100.00;95668.25;5058429;28;20447;-76
2022/01/10 00:42:43;;;;;;;7.27;4.63;;;;;;;-0.80;100.00;95636.00;5076214;28;20437;-75
2022/01/10 00:45:20;;;;;;;8.00;5.17;;;;;;;-0.66;100.00;95673.25;5075138;28;20546;-75
2022/01/10 00:47:47;;;;;;;7.20;5.30;;;;;;;-0.84;100.00;95647.16;5075001;28;20452;-75
2022/01/10 00:50:14;;;;;;;7.90;6.93;;;;;;;-0.53;100.00;95671.88;5074162;28;20428;-76
2022/01/10 00:52:41;;;;;;;11.90;6.80;;;;;;;-0.41;100.00;95655.91;5057925;28;20524;-75
2022/01/10 00:55:09;;;;;;;10.30;7.53;;;;;;;-0.47;100.00;95642.22;5073958;28;20429;-76
2022/01/10 00:57:36;;;;;;;12.13;7.97;;;;;;;-0.38;100.00;95658.00;5057531;28;20463;-76
2022/01/10 01:00:05;;;;;;;10.80;8.13;;;;;;;-0.32;100.00;95655.06;5076290;28;20494;-73
2022/01/10 01:02:32;;;;;;;9.60;6.80;;;;;;;-0.34;100.00;95679.75;5074321;28;20441;-73
2022/01/10 01:05:01;;;;;;;11.10;8.80;;;;;;;-0.46;100.00;95687.91;5056696;28;20460;-74
2022/01/10 01:07:28;;;;;;;10.10;8.00;;;;;;;-0.60;100.00;95666.97;5074053;28;20447;-74
2022/01/10 01:10:13;;;;;;;12.00;9.10;;;;;;;-0.25;100.00;95698.91;5072689;28;20498;-74
2022/01/10 01:12:51;;;;;;;9.27;8.27;;;;;;;-0.59;100.00;95672.94;5055038;28;20436;-73
2022/01/10 01:15:23;;;;;;;10.27;8.17;;;;;;;-0.73;100.00;95685.75;5072903;28;20408;-73
2022/01/10 01:18:13;;;;;;;17.57;12.90;;;;;;;-0.74;100.00;95671.22;5072870;28;20452;-73
2022/01/10 01:25:59;;;;;;;26.47;15.23;;;;;;;-0.52;100.00;95724.56;5072749;28;20468;-74
2022/01/10 01:28:25;;;;;;;22.03;13.67;;;;;;;-0.57;100.00;95712.38;5057394;28;20876;-73
2022/01/10 01:30:53;;;;;;;19.10;12.20;;;;;;;-0.81;100.00;95688.91;5072922;28;20535;-74
2022/01/10 01:33:20;;;;;;;18.20;11.73;;;;;;;-0.51;100.00;95734.69;5057064;28;20444;-74
2022/01/10 01:35:47;;;;;;;20.50;14.37;;;;;;;-0.62;100.00;95728.78;5073561;28;20539;-76
2022/01/10 01:38:14;;;;;;;53.93;34.43;;;;;;;-0.52;100.00;95740.16;5073614;28;20527;-74
2022/01/10 01:40:52;;;;;;;22.17;18.10;;;;;;;-0.40;100.00;95759.53;5057459;28;20486;-74
2022/01/10 01:43:19;;;;;;;23.77;17.27;;;;;;;-0.56;100.00;95745.06;5072093;28;20440;-75
2022/01/10 01:45:47;;;;;;;18.63;15.40;;;;;;;-0.59;100.00;95743.03;5073760;28;20942;-75
2022/01/10 01:48:15;;;;;;;18.13;12.53;;;;;;;-0.66;100.00;95761.50;5073536;28;20436;-75
2022/01/10 01:50:45;;;;;;;18.53;12.60;;;;;;;-0.50;100.00;95789.97;5072901;28;20440;-75
2022/01/10 01:53:13;;;;;;;15.20;12.73;;;;;;;-0.65;100.00;95770.84;5072128;28;20440;-77
2022/01/10 01:55:39;;;;;;;11.70;10.40;;;;;;;-0.64;100.00;95774.22;5054421;28;20807;-77
2022/01/10 01:58:06;;;;;;;15.27;11.17;;;;;;;-0.48;100.00;95799.03;5071042;28;20471;-77
2022/01/10 02:00:34;;;;;;;16.70;11.27;;;;;;;-0.71;100.00;95758.91;5054359;28;20432;-77
2022/01/10 02:03:01;;;;;;;15.93;11.50;;;;;;;-0.44;100.00;95800.03;5071062;28;20791;-77
2022/01/10 02:05:30;;;;;;;14.13;10.50;;;;;;;-0.62;100.00;95772.13;5054512;28;20478;-77
2022/01/10 02:07:58;;;;;;;13.23;11.20;;;;;;;-0.72;100.00;95775.53;5054570;28;20787;-75
2022/01/10 02:10:25;;;;;;;11.53;9.97;;;;;;;-1.07;100.00;95727.22;5070605;28;20510;-75
2022/01/10 02:12:52;;;;;;;11.00;9.90;;;;;;;-0.70;100.00;95788.25;5070397;28;20454;-75
2022/01/10 02:15:26;;;;;;;11.57;9.93;;;;;;;-0.28;100.00;95824.09;5070657;28;20445;-74
2022/01/10 02:17:59;;;;;;;10.63;8.97;;;;;;;-0.04;100.00;95830.16;5070331;28;20474;-75
2022/01/10 02:20:31;;;;;;;12.17;9.47;;;;;;;-0.20;100.00;95794.97;5070395;28;20444;-75
2022/01/10 02:22:58;;;;;;;14.83;11.27;;;;;;;0.07;100.00;95830.09;5053641;28;20542;-75
2022/01/10 02:25:45;;;;;;;15.30;10.07;;;;;;;0.01;100.00;95813.00;5070459;28;21060;-74
2022/01/10 02:28:13;;;;;;;11.67;9.77;;;;;;;0.10;100.00;95840.72;5053726;28;20447;-75
2022/01/10 02:30:40;;;;;;;11.23;9.63;;;;;;;0.04;100.00;95838.44;5070148;28;20493;-75
2022/01/10 02:33:07;;;;;;;13.70;10.60;;;;;;;0.15;100.00;95845.13;5070100;28;20497;-74
2022/01/10 02:35:57;;;;;;;12.90;9.40;;;;;;;0.12;100.00;95841.22;5069872;28;20467;-75
2022/01/10 02:38:24;;;;;;;13.30;11.63;;;;;;;-0.11;100.00;95813.34;5070002;28;20467;-74
2022/01/10 02:40:52;;;;;;;11.63;9.90;;;;;;;-0.12;100.00;95833.38;5070194;28;20841;-75
2022/01/10 02:43:19;;;;;;;11.63;10.50;;;;;;;-0.32;100.00;95820.50;5053296;28;20884;-75
2022/01/10 02:45:47;;;;;;;13.33;9.13;;;;;;;-0.31;100.00;95850.59;5069926;28;20470;-75
2022/01/10 02:48:13;;;;;;;12.00;9.60;;;;;;;-0.28;100.00;95860.44;5070040;28;20445;-75
2022/01/10 02:50:40;;;;;;;13.53;10.37;;;;;;;-0.31;100.00;95861.78;5069822;28;20464;-75
2022/01/10 02:53:07;;;;;;;13.33;9.90;;;;;;;-0.25;100.00;95841.75;5069940;28;20528;-75
2022/01/10 02:55:36;;;;;;;10.50;8.63;;;;;;;0.02;100.00;95866.53;5069732;28;20478;-75
2022/01/10 02:58:02;;;;;;;12.20;9.50;;;;;;;-0.13;100.00;95850.00;5070071;28;20425;-75
2022/01/10 03:00:30;;;;;;;17.00;8.93;;;;;;;-0.01;100.00;95867.81;5053613;28;20866;-75
2022/01/10 03:02:58;;;;;;;12.87;9.43;;;;;;;-0.12;100.00;95842.97;5069952;28;20441;-74
2022/01/10 03:05:27;;;;;;;10.40;9.27;;;;;;;-0.23;100.00;95818.88;5069886;28;20551;-75
2022/01/10 03:07:56;;;;;;;15.90;10.00;;;;;;;-0.07;100.00;95846.31;5069878;28;20537;-75
2022/01/10 03:10:22;;;;;;;15.43;10.20;;;;;;;-0.15;100.00;95867.66;5069969;28;20446;-75
2022/01/10 03:12:50;;;;;;;15.30;9.23;;;;;;;-0.22;100.00;95877.56;5053311;28;20449;-75
2022/01/10 03:15:18;;;;;;;9.60;8.60;;;;;;;-0.27;100.00;95872.38;5069795;28;20443;-73
2022/01/10 03:17:45;;;;;;;18.40;9.60;;;;;;;-0.29;100.00;95851.09;5069771;28;20460;-73
2022/01/10 03:20:12;;;;;;;10.17;8.30;;;;;;;-0.24;100.00;95855.50;5069719;28;20429;-73
2022/01/10 03:22:38;;;;;;;11.27;9.40;;;;;;;-0.29;100.00;95866.69;5071109;28;20428;-73
2022/01/10 03:25:06;;;;;;;12.87;9.57;;;;;;;-0.22;100.00;95880.16;5053098;28;20796;-73
2022/01/10 03:27:35;;;;;;;11.27;9.07;;;;;;;-0.17;100.00;95906.09;5053347;28;20460;-73
2022/01/10 03:30:04;;;;;;;10.17;8.70;;;;;;;-0.10;100.00;95916.22;5053121;28;20458;-74
2022/01/10 03:32:31;;;;;;;14.87;9.93;;;;;;;-0.23;100.00;95876.03;5069710;28;20515;-73
2022/01/10 03:35:07;;;;;;;11.50;10.27;;;;;;;-0.18;100.00;95909.75;5054953;28;20880;-73
2022/01/10 03:37:33;;;;;;;13.93;9.90;;;;;;;-0.04;100.00;95910.72;5073080;28;20463;-73
2022/01/10 03:40:01;;;;;;;10.67;9.10;;;;;;;-0.11;100.00;95919.88;5056727;28;20444;-73
2022/01/10 03:42:28;;;;;;;11.87;8.47;;;;;;;-0.20;100.00;95909.25;5073223;28;20447;-73
2022/01/10 03:44:55;;;;;;;11.93;9.47;;;;;;;0.00;100.00;95931.75;5073165;28;21139;-73
2022/01/10 03:47:23;;;;;;;10.20;9.17;;;;;;;-0.12;100.00;95906.09;5073060;28;21079;-73
2022/01/10 03:53:45;;;;;;;14.17;9.07;;;;;;;-0.31;100.00;95912.94;5072802;28;20797;-73
2022/01/10 03:56:12;;;;;;;11.20;8.63;;;;;;;-0.13;100.00;95945.34;5072786;28;20452;-73
2022/01/10 03:58:42;;;;;;;11.63;8.47;;;;;;;-0.34;100.00;95923.84;5056784;28;20470;-73
2022/01/10 04:01:09;;;;;;;11.13;9.93;;;;;;;-0.17;100.00;95949.50;5072711;28;20489;-73
2022/01/10 04:03:38;;;;;;;12.97;9.63;;;;;;;-0.62;100.00;95900.09;5072686;28;20454;-73
2022/01/10 04:06:11;;;;;;;12.23;10.17;;;;;;;-0.42;100.00;95950.38;5072501;28;20557;-73
2022/01/10 04:08:38;;;;;;;14.20;8.83;;;;;;;-0.47;100.00;95947.78;5072762;28;20439;-73
2022/01/10 04:11:05;;;;;;;11.80;9.60;;;;;;;-0.61;100.00;95937.19;5072578;28;20966;-73
2022/01/10 04:13:33;;;;;;;11.90;9.50;;;;;;;-0.50;100.00;95967.28;5072637;28;20444;-73
2022/01/10 04:16:00;;;;;;;12.50;9.67;;;;;;;-0.59;100.00;95968.84;5055981;28;20459;-73
2022/01/10 04:18:26;;;;;;;15.10;10.63;;;;;;;-0.68;100.00;95966.00;5072635;28;20611;-73
2022/01/10 04:20:53;;;;;;;14.70;9.37;;;;;;;-0.88;100.00;95945.31;5072444;28;20929;-74
2022/01/10 04:23:21;;;;;;;13.47;10.60;;;;;;;-0.65;100.00;95980.31;5072485;28;20462;-73
2022/01/10 04:25:47;;;;;;;10.47;8.90;;;;;;;-0.67;100.00;95985.75;5072313;28;20842;-73
2022/01/10 04:28:15;;;;;;;14.50;11.20;;;;;;;-0.97;100.00;95946.88;5055919;28;20852;-73
2022/01/10 04:30:42;;;;;;;12.60;10.17;;;;;;;-0.82;100.00;95985.75;5055676;28;20493;-73
2022/01/10 04:33:10;;;;;;;17.27;10.50;;;;;;;-0.86;100.00;95996.94;5072180;28;20874;-73
2022/01/10 04:35:37;;;;;;;17.80;12.80;;;;;;;-1.01;100.00;95967.38;5073250;28;20812;-73
2022/01/10 04:38:07;;;;;;;12.23;10.27;;;;;;;-0.75;100.00;95999.25;5072256;28;20950;-73
2022/01/10 04:40:34;;;;;;;10.47;9.33;;;;;;;-0.64;100.00;96000.81;5072295;28;20436;-73
2022/01/10 04:43:01;;;;;;;13.10;9.90;;;;;;;-0.76;100.00;95976.16;5055586;28;20527;-73
2022/01/10 04:45:28;;;;;;;12.17;9.80;;;;;;;-0.72;100.00;95990.16;5055551;28;20526;-74
2022/01/10 04:47:56;;;;;;;14.93;9.63;;;;;;;-0.72;100.00;95992.75;5055464;28;20467;-73
2022/01/10 04:52:57;;;;;;;11.20;9.97;;;;;;;-0.67;100.00;96008.31;5071922;28;20431;-73
2022/01/10 04:55:24;;;;;;;14.43;10.40;;;;;;;-0.43;100.00;96024.09;5071613;28;20436;-73
2022/01/10 04:57:51;;;;;;;14.70;11.20;;;;;;;-0.30;100.00;96026.94;5071751;28;20982;-76
2022/01/10 05:00:18;;;;;;;13.13;11.83;;;;;;;-0.47;100.00;96007.50;5056280;28;20451;-74
2022/01/10 05:02:47;;;;;;;15.50;12.70;;;;;;;-0.18;100.00;96038.84;5056353;28;20436;-76
2022/01/10 05:05:14;;;;;;;13.87;11.00;;;;;;;-0.09;100.00;96038.06;5072882;28;20472;-75
2022/01/10 05:07:41;;;;;;;14.70;10.43;;;;;;;-0.23;100.00;96011.09;5072568;28;20472;-76
2022/01/10 05:10:09;;;;;;;12.30;9.70;;;;;;;-0.24;100.00;96022.53;5072872;28;20464;-75
2022/01/10 05:12:38;;;;;;;12.93;11.00;;;;;;;-0.45;100.00;96023.59;5073221;28;20535;-75
2022/01/10 05:15:05;;;;;;;16.00;10.60;;;;;;;-0.45;100.00;96047.75;5056398;28;20501;-75
2022/01/10 05:17:32;;;;;;;11.27;10.00;;;;;;;-0.81;100.00;96002.09;5056003;28;21116;-75
2022/01/10 05:19:59;;;;;;;17.27;10.30;;;;;;;-0.58;100.00;96047.50;5072234;28;20452;-75
2022/01/10 05:22:25;;;;;;;13.83;10.40;;;;;;;-0.63;100.00;96048.31;5056482;28;20532;-75
2022/01/10 05:24:53;;;;;;;13.70;11.20;;;;;;;-0.85;100.00;96021.84;5072824;28;20976;-75
2022/01/10 05:27:19;;;;;;;13.40;9.70;;;;;;;-0.78;100.00;96032.75;5072396;28;20468;-75
2022/01/10 05:29:47;;;;;;;12.97;10.20;;;;;;;-0.44;100.00;96056.31;5072471;28;20959;-75
2022/01/10 05:32:15;;;;;;;14.13;11.03;;;;;;;-0.56;100.00;96038.41;5073078;28;20448;-76
2022/01/10 05:34:56;;;;;;;12.90;11.60;;;;;;;-0.46;100.00;96053.22;5072940;28;20433;-75
2022/01/10 05:37:22;;;;;;;16.10;11.07;;;;;;;-0.71;100.00;96034.03;5056202;28;20468;-75
2022/01/10 05:39:49;;;;;;;13.20;10.50;;;;;;;-0.87;100.00;96024.69;5073086;28;20467;-74
2022/01/10 05:42:18;;;;;;;12.83;10.20;;;;;;;-0.76;100.00;96047.00;5073111;28;20433;-75
2022/01/10 05:44:46;;;;;;;12.93;10.40;;;;;;;-0.78;100.00;96061.28;5056055;28;20429;-75
2022/01/10 05:47:13;;;;;;;11.70;10.47;;;;;;;-0.70;100.00;96073.72;5055417;28;21016;-76
2022/01/10 05:49:47;;;;;;;15.37;11.77;;;;;;;-0.73;100.00;96064.66;5055655;28;20467;-76
2022/01/10 05:52:17;;;;;;;13.10;9.07;;;;;;;-0.84;100.00;96051.94;5072184;28;20452;-75
2022/01/10 05:54:49;;;;;;;13.90;10.93;;;;;;;-0.66;100.00;96085.94;5072282;28;20432;-75
2022/01/10 05:57:16;;;;;;;13.03;10.20;;;;;;;-0.82;100.00;96071.41;5072102;28;20536;-76
2022/01/10 05:59:48;;;;;;;17.50;10.77;;;;;;;-0.86;100.00;96072.97;5056407;28;20452;-75
2022/01/10 06:02:15;;;;;;;12.40;9.67;;;;;;;-0.71;100.00;96080.75;5071419;28;20448;-76
2022/01/10 06:04:42;;;;;;;18.70;12.97;;;;;;;-0.80;100.00;96074.53;5054319;28;20447;-73
2022/01/10 06:07:19;;;;;;;21.00;11.80;;;;;;;-0.62;100.00;96110.34;5070328;28;20506;-73
2022/01/10 06:09:47;;;;;;;18.07;13.83;;;;;;;-0.67;100.00;96115.53;5070506;28;20448;-73
2022/01/10 06:12:14;;;;;;;17.03;13.20;;;;;;;-1.12;100.00;96064.38;5070526;28;20491;-73
2022/01/10 06:14:41;;;;;;;16.30;11.93;;;;;;;-0.73;100.00;96106.19;5053780;28;20432;-73
2022/01/10 06:17:08;;;;;;;10.63;9.20;;;;;;;-0.54;100.00;96129.00;5070315;28;20460;-74
2022/01/10 06:19:34;;;;;;;12.50;10.33;;;;;;;-0.54;100.00;96118.63;5053910;28;20443;-73
2022/01/10 06:22:01;;;;;;;19.03;15.33;;;;;;;-0.21;100.00;96135.50;5070300;28;20498;-74
2022/01/10 06:24:29;;;;;;;15.03;12.40;;;;;;;-0.46;100.00;96146.69;5053903;28;20520;-74
2022/01/10 06:26:56;;;;;;;16.63;11.80;;;;;;;-0.66;100.00;96157.84;5070292;28;20464;-73
2022/01/10 06:29:24;;;;;;;16.33;12.53;;;;;;;-0.87;100.00;96120.69;5070241;28;21066;-72
2022/01/10 06:31:51;;;;;;;23.23;13.33;;;;;;;-0.80;100.00;96138.59;5053800;28;20436;-74
2022/01/10 06:34:18;;;;;;;15.90;12.73;;;;;;;-0.75;100.00;96149.00;5070290;28;21001;-74
2022/01/10 06:36:46;;;;;;;23.37;15.80;;;;;;;-0.64;100.00;96172.13;5070091;28;20498;-74
2022/01/10 06:39:14;;;;;;;16.97;12.53;;;;;;;-0.66;100.00;96176.78;5070173;28;20456;-74
2022/01/10 06:41:44;;;;;;;17.27;12.53;;;;;;;-0.69;100.00;96181.69;5053929;28;20452;-74
2022/01/10 06:44:11;;;;;;;16.73;11.03;;;;;;;-0.81;100.00;96179.34;5070146;28;20451;-74
2022/01/10 06:46:38;;;;;;;17.50;11.70;;;;;;;-0.86;100.00;96171.56;5070148;28;20493;-74
2022/01/10 06:49:05;;;;;;;22.50;17.13;;;;;;;-0.58;100.00;96198.84;5070004;28;20443;-74
2022/01/10 06:51:31;;;;;;;65.03;44.97;;;;;;;-0.72;100.00;96177.81;5053433;28;21004;-73
2022/01/10 06:53:58;;;;;;;348.70;244.10;;;;;;;-0.73;100.00;96163.28;5070941;28;20831;-74
2022/01/10 06:56:25;;;;;;;21.10;12.40;;;;;;;-0.51;100.00;96183.03;5069799;28;20520;-73
2022/01/10 06:58:53;;;;;;;18.60;13.73;;;;;;;-0.63;100.00;96191.84;5070365;28;20779;-74
2022/01/10 07:01:29;;;;;;;18.33;13.00;;;;;;;-0.46;100.00;96227.16;5070159;28;20428;-74
2022/01/10 07:03:59;;;;;;;16.37;11.57;;;;;;;-0.49;100.00;96225.09;5053767;28;20979;-74
2022/01/10 07:06:26;;;;;;;20.90;13.00;;;;;;;-0.47;100.00;96239.38;5069928;28;20467;-74
2022/01/10 07:08:54;;;;;;;18.50;12.63;;;;;;;-0.54;100.00;96235.44;5053651;28;20535;-74
2022/01/10 07:11:31;;;;;;;17.87;13.20;;;;;;;-0.54;100.00;96240.66;5073048;28;20428;-74
2022/01/10 07:13:58;;;;;;;33.00;22.00;;;;;;;-0.41;100.00;96240.16;5073981;28;20436;-74
2022/01/10 07:16:24;;;;;;;21.13;13.13;;;;;;;-0.42;100.00;96254.16;5073934;28;20470;-74
2022/01/10 07:18:58;;;;;;;21.63;14.80;;;;;;;-0.63;100.00;96232.59;5058093;28;20436;-74
2022/01/10 07:21:30;;;;;;;20.70;10.73;;;;;;;-0.52;100.00;96248.97;5073728;28;20452;-74
2022/01/10 07:23:56;;;;;;;15.90;10.63;;;;;;;-0.80;100.00;96217.25;5057336;28;20444;-73
2022/01/10 07:26:23;;;;;;;17.90;10.30;;;;;;;-0.46;100.00;96266.91;5074819;28;20456;-73
2022/01/10 07:28:52;;;;;;;13.53;8.87;;;;;;;-0.56;100.00;96259.09;5075051;28;20427;-74
2022/01/10 07:31:18;;;;;;;14.10;10.40;;;;;;;-0.65;100.00;96260.63;5073837;28;20435;-73
2022/01/10 07:33:45;;;;;;;25.80;12.70;;;;;;;-0.76;100.00;96249.44;5057093;28;20573;-73
2022/01/10 07:36:12;;;;;;;24.03;11.80;;;;;;;-0.63;100.00;96259.34;5073308;28;20476;-73
2022/01/10 07:38:39;;;;;;;17.33;12.40;;;;;;;-0.65;100.00;96271.81;5057189;28;20444;-74
2022/01/10 07:41:06;;;;;;;24.53;13.23;;;;;;;-0.56;100.00;96294.66;5073577;28;20427;-74
2022/01/10 07:43:34;;;;;;;19.70;13.13;;;;;;;-0.61;100.00;96296.19;5073550;28;20471;-73
2022/01/10 07:46:03;;;;;;;20.70;13.87;;;;;;;-0.68;100.00;96287.88;5073211;28;21024;-74
2022/01/10 07:48:32;;;;;;;28.00;14.00;;;;;;;-0.54;100.00;96308.94;5073447;28;20476;-74
2022/01/10 07:50:59;;;;;;;22.03;13.00;;;;;;;-0.85;100.00;96273.53;5073254;28;20449;-74
2022/01/10 07:53:25;;;;;;;21.80;14.07;;;;;;;-0.69;100.00;96312.25;5074608;28;20424;-73
2022/01/10 07:55:57;;;;;;;18.67;12.33;;;;;;;-0.80;100.00;96292.53;5073023;28;20471;-73
2022/01/10 07:58:24;;;;;;;19.83;14.20;;;;;;;-0.66;100.00;96316.97;5073104;28;20477;-73
2022/01/10 08:00:50;;;;;;;18.73;12.63;;;;;;;-0.75;100.00;96313.28;5073118;28;20505;-73
2022/01/10 08:03:17;;;;;;;21.13;12.20;;;;;;;-0.69;100.00;96342.63;5074365;28;20435;-73
2022/01/10 08:05:44;;;;;;;17.10;13.70;;;;;;;-0.69;100.00;96333.03;5056358;28;20444;-73
2022/01/10 08:08:11;;;;;;;16.70;10.50;;;;;;;-0.91;100.00;96309.88;5072595;28;20460;-74
2022/01/10 08:10:38;;;;;;;18.97;12.37;;;;;;;-0.70;100.00;96354.84;5074188;28;20481;-73
2022/01/10 08:13:06;;;;;;;17.40;12.73;;;;;;;-0.78;100.00;96342.34;5056369;28;20444;-74
2022/01/10 08:15:33;;;;;;;17.20;11.40;;;;;;;-0.64;100.00;96360.84;5072667;28;20447;-74
2022/01/10 08:18:01;;;;;;;17.70;12.50;;;;;;;-0.83;100.00;96334.53;5072910;28;20432;-73
2022/01/10 08:20:27;;;;;;;24.20;12.60;;;;;;;-0.82;100.00;96337.91;5055823;28;20475;-74
2022/01/10 08:22:54;;;;;;;22.23;12.50;;;;;;;-0.66;100.00;96355.13;5072705;28;20455;-74
2022/01/10 08:25:21;;;;;;;22.87;12.03;;;;;;;-0.66;100.00;96358.50;5056186;28;20440;-74
2022/01/10 08:27:48;;;;;;;23.33;12.27;;;;;;;-0.37;100.00;96382.22;5072577;28;20467;-73
2022/01/10 08:30:15;;;;;;;20.57;12.13;;;;;;;-0.25;100.00;96381.22;5072623;28;20801;-74
2022/01/10 08:32:42;;;;;;;15.27;11.20;;;;;;;-0.34;100.00;96388.72;5072629;28;20935;-74
2022/01/10 08:35:08;;;;;;;18.93;12.20;;;;;;;-0.39;100.00;96375.75;5072336;28;20462;-74
2022/01/10 08:37:35;;;;;;;21.20;12.63;;;;;;;-0.44;100.00;96373.09;5072319;28;20491;-73
2022/01/10 08:40:04;;;;;;;20.77;13.47;;;;;;;-0.37;100.00;96390.03;5072345;28;20467;-74
2022/01/10 08:42:31;;;;;;;22.83;14.37;;;;;;;-0.44;100.00;96386.09;5072449;28;20445;-74
2022/01/10 08:44:58;;;;;;;17.17;13.80;;;;;;;-0.22;100.00;96415.25;5073469;28;20432;-75
2022/01/10 08:47:26;;;;;;;22.20;14.07;;;;;;;-0.18;100.00;96424.09;5076092;28;20476;-76
2022/01/10 08:49:53;;;;;;;20.60;13.37;;;;;;;-0.38;100.00;96414.44;5086458;28;20428;-75
2022/01/10 08:52:19;;;;;;;15.00;11.33;;;;;;;-0.40;100.00;96403.53;5079423;28;20475;-75
2022/01/10 08:54:48;;;;;;;22.23;16.00;;;;;;;-0.15;100.00;96441.00;5072795;28;20436;-73
2022/01/10 08:57:16;;;;;;;19.53;14.50;;;;;;;-0.12;100.00;96428.28;5073184;28;20511;-73
2022/01/10 08:59:44;;;;;;;20.63;13.80;;;;;;;-0.16;100.00;96439.44;5055473;28;20440;-74
2022/01/10 09:02:12;;;;;;;18.10;11.90;;;;;;;-0.12;100.00;96443.09;5055461;28;20428;-73
2022/01/10 09:04:39;;;;;;;21.47;14.30;;;;;;;-0.23;100.00;96424.09;5072034;28;20486;-73
2022/01/10 09:07:08;;;;;;;21.87;14.13;;;;;;;-0.18;100.00;96426.69;5071785;28;20559;-73
2022/01/10 09:09:37;;;;;;;18.20;12.13;;;;;;;0.13;100.00;96456.16;5055302;28;20448;-73
2022/01/10 09:12:04;;;;;;;17.30;12.87;;;;;;;0.13;100.00;96458.75;5071558;28;20483;-74
2022/01/10 09:14:31;;;;;;;21.20;12.67;;;;;;;0.04;100.00;96456.91;5071584;28;20484;-74
2022/01/10 09:16:58;;;;;;;16.60;11.17;;;;;;;-0.14;100.00;96434.75;5071474;28;20509;-73
2022/01/10 09:19:25;;;;;;;16.60;11.10;;;;;;;-0.01;100.00;96436.88;5055004;28;20440;-73
2022/01/10 09:21:52;;;;;;;21.13;13.27;;;;;;;0.09;100.00;96467.31;5071278;28;20813;-73
2022/01/10 09:24:19;;;;;;;17.60;11.40;;;;;;;0.16;100.00;96454.88;5074345;28;20440;-75
2022/01/10 09:26:45;;;;;;;20.53;14.07;;;;;;;0.36;100.00;96461.94;5061415;28;20491;-75
2022/01/10 09:29:12;;;;;;;21.60;13.53;;;;;;;0.17;100.00;96446.03;5079092;28;20436;-75
2022/01/10 09:31:39;;;;;;;14.33;11.13;;;;;;;0.19;100.00;96454.38;5077727;28;20444;-75
2022/01/10 09:34:06;;;;;;;21.93;12.83;;;;;;;0.14;100.00;96460.34;5076311;28;20486;-75
2022/01/10 09:36:34;;;;;;;20.37;12.20;;;;;;;0.35;100.00;96496.78;5060917;28;20921;-75
2022/01/10 09:39:02;;;;;;;17.40;13.67;;;;;;;0.38;100.00;96497.03;5077674;28;20443;-75
2022/01/10 09:41:29;;;;;;;19.80;12.27;;;;;;;0.33;100.00;96486.63;5077113;28;20445;-75
2022/01/10 09:44:02;;;;;;;20.87;11.43;;;;;;;0.59;100.00;96514.25;5077561;28;20460;-75
2022/01/10 09:46:30;;;;;;;22.10;14.33;;;;;;;0.29;100.00;96475.97;5075945;28;20921;-74
2022/01/10 09:49:00;;;;;;;16.83;11.30;;;;;;;0.34;100.00;96490.00;5070892;28;20475;-74
2022/01/10 09:51:28;;;;;;;16.63;11.27;;;;;;;0.05;100.00;96451.47;5054483;28;20428;-74
2022/01/10 09:53:56;;;;;;;13.53;9.83;;;;;;;0.26;100.00;96512.84;5070827;28;20452;-74
2022/01/10 09:56:24;;;;;;;17.47;11.37;;;;;;;0.35;100.00;96533.97;5054166;28;20515;-74
2022/01/10 09:58:53;;;;;;;19.83;11.13;;;;;;;0.29;100.00;96524.59;5072118;28;20432;-73
2022/01/10 10:01:20;;;;;;;18.40;12.37;;;;;;;0.20;100.00;96511.28;5070889;28;20428;-74
2022/01/10 10:03:49;;;;;;;14.53;9.93;;;;;;;0.40;100.00;96528.78;5070928;28;20478;-74
2022/01/10 10:06:17;;;;;;;14.47;10.07;;;;;;;0.46;100.00;96524.38;5070486;28;20547;-74
2022/01/10 10:08:44;;;;;;;16.20;10.60;;;;;;;0.35;100.00;96517.56;5070665;28;21051;-74
2022/01/10 10:11:12;;;;;;;20.00;12.13;;;;;;;0.54;100.00;96539.50;5070650;28;20470;-74
2022/01/10 10:13:43;;;;;;;20.07;13.60;;;;;;;0.92;100.00;96550.47;5071806;28;20993;-74
2022/01/10 10:16:15;;;;;;;19.73;16.27;;;;;;;0.94;100.00;96551.78;5053772;28;20456;-74
2022/01/10 10:18:43;;;;;;;15.80;11.37;;;;;;;0.82;100.00;96541.63;5070403;28;20443;-74
2022/01/10 10:21:18;;;;;;;16.67;11.93;;;;;;;0.80;100.00;96548.09;5070371;28;20428;-74
2022/01/10 10:23:47;;;;;;;19.03;14.63;;;;;;;0.68;100.00;96537.97;5070276;28;20475;-74
2022/01/10 10:26:16;;;;;;;21.13;13.87;;;;;;;0.82;100.00;96565.03;5070178;28;20459;-75
2022/01/10 10:28:45;;;;;;;18.70;13.77;;;;;;;0.75;100.00;96540.28;5071673;28;20551;-74
2022/01/10 10:31:13;;;;;;;15.70;10.20;;;;;;;0.74;100.00;96567.34;5070153;28;20494;-74
2022/01/10 10:33:48;;;;;;;21.17;12.97;;;;;;;0.55;100.00;96526.22;5053802;28;20547;-74
2022/01/10 10:36:16;;;;;;;22.47;13.40;;;;;;;0.91;100.00;96551.50;5053907;28;20513;-74
2022/01/10 10:38:43;;;;;;;18.43;14.43;;;;;;;1.05;100.00;96558.53;5072028;28;20450;-74
2022/01/10 10:41:10;;;;;;;18.17;11.03;;;;;;;1.14;100.00;96583.03;5069861;28;20440;-74
2022/01/10 10:43:40;;;;;;;14.57;9.37;;;;;;;1.00;100.00;96576.78;5069663;28;20436;-74
2022/01/10 10:46:16;;;;;;;11.07;8.83;;;;;;;0.85;100.00;96561.13;5069928;28;21026;-74
2022/01/10 10:48:45;;;;;;;11.63;9.27;;;;;;;1.13;100.00;96586.69;5053522;28;20444;-74
2022/01/10 10:51:12;;;;;;;12.63;9.00;;;;;;;1.11;100.00;96582.78;5071488;28;20790;-74
2022/01/10 10:53:39;;;;;;;14.43;7.03;;;;;;;1.21;100.00;96593.22;5070216;28;20543;-73
2022/01/10 10:56:07;;;;;;;12.13;8.30;;;;;;;1.26;100.00;96590.59;5070012;28;20475;-74
2022/01/10 10:58:36;;;;;;;13.10;10.40;;;;;;;1.33;100.00;96600.75;5070065;28;20432;-74
2022/01/10 11:01:04;;;;;;;17.80;11.10;;;;;;;1.11;100.00;96580.19;5071503;28;20438;-73
2022/01/10 11:03:31;;;;;;;34.70;18.93;;;;;;;1.23;100.00;96605.97;5071207;28;20432;-74
2022/01/10 11:05:59;;;;;;;19.10;12.63;;;;;;;1.12;100.00;96605.94;5071329;28;20447;-74
2022/01/10 11:08:28;;;;;;;22.30;11.10;;;;;;;0.77;100.00;96548.63;5053337;28;20468;-74
2022/01/10 11:10:54;;;;;;;22.63;13.83;;;;;;;1.16;100.00;96604.38;5069988;28;20436;-74
2022/01/10 11:13:23;;;;;;;15.17;11.03;;;;;;;1.25;100.00;96619.50;5069946;28;20509;-73
2022/01/10 11:15:51;;;;;;;16.23;8.70;;;;;;;0.92;100.00;96582.47;5070140;28;20429;-73
2022/01/10 11:18:21;;;;;;;18.57;11.40;;;;;;;1.11;100.00;96627.03;5069964;28;20456;-74
2022/01/10 11:20:51;;;;;;;18.30;11.27;;;;;;;0.73;100.00;96558.00;5070038;28;20468;-73
2022/01/10 11:23:45;;;;;;;16.07;10.40;;;;;;;1.13;100.00;96630.94;5069983;28;20432;-73
2022/01/10 11:26:13;;;;;;;11.87;9.80;;;;;;;1.15;100.00;96625.47;5069715;28;20521;-74
2022/01/10 11:28:54;;;;;;;14.90;10.13;;;;;;;0.98;100.00;96598.91;5069594;28;20465;-74
2022/01/10 11:31:28;;;;;;;12.77;9.10;;;;;;;1.02;100.00;96608.53;5070041;28;20463;-74